Time;durP1;ratioP1;P1;durP2;ratioP2;P2;SDS_P1;SDS_P2;PMS_P1;PMS_P2;Temp;Humidity;BMP_temperature;BMP_pressure;BME280_temperature;BME280_humidity;BME280_pressure;Samples;Min_cycle;Max_cycle;Signal;HPM_P1;HPM_P2
2021/04/13 00:00:39;;;;;;;5.37;3.50;;;6.40;45.00;;;;;;5051160;28;20233;-81
2021/04/13 00:03:08;;;;;;;4.03;3.50;;;6.50;44.00;;;;;;5021495;28;20519;-80
2021/04/13 00:05:41;;;;;;;4.00;3.37;;;6.50;44.20;;;;;;5046821;28;20476;-80
2021/04/13 00:08:14;;;;;;;4.63;3.15;;;6.50;43.70;;;;;;5059327;28;20490;-82
2021/04/13 00:10:46;;;;;;;3.40;3.10;;;6.50;56.60;;;;;;5052331;28;20208;-80
2021/04/13 00:13:14;;;;;;;4.63;3.28;;;6.40;44.90;;;;;;5055433;28;20243;-80
2021/04/13 00:15:46;;;;;;;3.73;2.90;;;6.30;45.20;;;;;;5055443;28;20250;-80
2021/04/13 00:18:15;;;;;;;3.88;2.83;;;6.50;46.20;;;;;;5064523;28;20974;-81
2021/04/13 00:20:46;;;;;;;3.20;2.90;;;6.40;46.70;;;;;;5056978;28;20203;-79
2021/04/13 00:23:14;;;;;;;4.53;3.78;;;6.40;46.10;;;;;;5054081;28;20999;-81
2021/04/13 00:25:47;;;;;;;2.90;2.63;;;6.40;45.50;;;;;;5058936;28;20211;-82
2021/04/13 00:28:20;;;;;;;20.77;9.00;;;6.40;45.20;;;;;;5048758;28;20488;-80
2021/04/13 00:30:51;;;;;;;35.58;14.27;;;6.40;45.80;;;;;;5048203;28;20471;-79
2021/04/13 00:33:22;;;;;;;4.40;4.10;;;6.70;46.80;;;;;;5054832;28;20698;-79
2021/04/13 00:36:07;;;;;;;10.98;5.10;;;6.40;47.40;;;;;;5058496;28;20219;-80
2021/04/13 00:38:37;;;;;;;10.00;5.27;;;6.40;49.20;;;;;;5050523;28;20198;-81
2021/04/13 00:41:14;;;;;;;6.20;3.93;;;6.40;47.30;;;;;;5055691;28;20462;-79
2021/04/13 00:43:45;;;;;;;6.83;4.83;;;6.40;47.50;;;;;;5042662;28;20648;-78
2021/04/13 00:46:19;;;;;;;4.67;4.10;;;6.40;47.40;;;;;;5052311;28;20476;-82
2021/04/13 00:48:47;;;;;;;4.70;4.07;;;6.50;48.40;;;;;;5057582;28;20487;-81
2021/04/13 00:51:23;;;;;;;5.15;3.70;;;6.30;49.90;;;;;;5060238;28;21258;-79
2021/04/13 00:53:58;;;;;;;4.75;2.90;;;6.30;49.80;;;;;;5056944;28;20308;-82
2021/04/13 00:56:26;;;;;;;3.00;2.75;;;6.10;50.20;;;;;;5049872;28;20207;-83
2021/04/13 00:59:02;;;;;;;3.20;3.00;;;6.10;53.40;;;;;;5043913;28;20222;-82
2021/04/13 01:01:36;;;;;;;3.67;3.10;;;6.10;53.50;;;;;;5049903;28;20482;-81
2021/04/13 01:04:12;;;;;;;4.13;3.37;;;6.20;56.90;;;;;;5050082;28;21019;-79
2021/04/13 01:06:40;;;;;;;3.45;3.20;;;6.20;55.60;;;;;;5053069;28;20478;-82
2021/04/13 01:09:18;;;;;;;4.97;3.13;;;6.20;58.90;;;;;;5056329;28;20303;-81
2021/04/13 01:11:48;;;;;;;8.23;4.20;;;6.10;61.90;;;;;;5047243;28;20205;-82
2021/04/13 01:14:16;;;;;;;4.45;4.05;;;6.10;70.70;;;;;;5049669;28;20513;-81
2021/04/13 01:16:54;;;;;;;10.27;4.68;;;6.00;92.90;;;;;;5047240;28;20654;-80
2021/04/13 01:19:48;;;;;;;4.78;3.80;;;6.00;78.90;;;;;;5044785;28;20222;-83
2021/04/13 01:22:27;;;;;;;9.37;3.60;;;6.10;76.30;;;;;;5054470;28;20198;-83
2021/04/13 01:25:00;;;;;;;3.20;2.90;;;6.20;72.20;;;;;;5046379;28;20541;-83
2021/04/13 01:27:27;;;;;;;5.07;3.23;;;6.30;69.10;;;;;;5055680;28;20218;-82
2021/04/13 01:29:57;;;;;;;4.60;2.97;;;6.20;67.90;;;;;;5058836;28;20823;-80
2021/04/13 01:32:25;;;;;;;3.70;3.40;;;6.20;68.90;;;;;;5053458;28;20580;-81
2021/04/13 01:35:02;;;;;;;4.53;2.90;;;6.20;68.50;;;;;;5063123;28;20972;-83
2021/04/13 01:37:42;;;;;;;4.78;2.88;;;6.10;71.00;;;;;;5051963;28;20946;-81
2021/04/13 01:40:22;;;;;;;4.15;2.92;;;6.00;71.90;;;;;;5046087;28;20283;-82
2021/04/13 01:42:52;;;;;;;3.90;3.60;;;6.00;71.10;;;;;;5047063;28;20231;-84
2021/04/13 01:45:22;;;;;;;3.13;2.83;;;6.10;69.60;;;;;;5048843;28;20208;-80
2021/04/13 01:47:53;;;;;;;4.30;3.90;;;6.00;68.60;;;;;;5056943;28;21108;-82
2021/04/13 01:50:23;;;;;;;3.25;2.95;;;6.10;70.30;;;;;;5056590;28;20494;-81
2021/04/13 01:52:59;;;;;;;3.80;3.50;;;6.20;70.00;;;;;;5068444;28;20958;-81
2021/04/13 01:55:28;;;;;;;5.85;3.45;;;6.20;67.00;;;;;;5053058;28;20470;-82
2021/04/13 01:58:01;;;;;;;4.03;3.55;;;6.20;66.10;;;;;;5052572;28;20216;-83
2021/04/13 02:00:32;;;;;;;3.40;2.90;;;6.10;65.90;;;;;;5051453;28;20220;-81
2021/04/13 02:03:11;;;;;;;3.07;2.77;;;6.10;68.20;;;;;;5060657;28;20251;-84
2021/04/13 02:05:42;;;;;;;4.13;3.70;;;6.10;67.30;;;;;;5051289;28;20475;-82
2021/04/13 02:08:17;;;;;;;3.45;2.97;;;6.10;66.50;;;;;;5055983;28;20226;-82
2021/04/13 02:10:48;;;;;;;4.97;3.15;;;6.00;68.10;;;;;;5069783;28;20206;-83
2021/04/13 02:13:20;;;;;;;3.83;3.03;;;6.00;67.90;;;;;;5067902;28;20229;-83
2021/04/13 02:16:02;;;;;;;5.00;4.22;;;6.00;67.40;;;;;;5056951;28;20216;-83
2021/04/13 02:18:36;;;;;;;3.50;3.20;;;6.00;64.20;;;;;;5055204;28;20244;-82
2021/04/13 02:21:09;;;;;;;3.50;3.20;;;5.90;64.80;;;;;;5067034;28;20210;-80
2021/04/13 02:23:44;;;;;;;3.10;2.90;;;5.90;63.90;;;;;;5062758;28;20852;-82
2021/04/13 02:26:11;;;;;;;4.28;3.53;;;6.20;61.40;;;;;;5067422;28;20207;-82
2021/04/13 02:28:40;;;;;;;3.28;3.00;;;6.10;61.50;;;;;;5051800;28;20221;-82
2021/04/13 02:31:10;;;;;;;3.55;3.25;;;5.90;58.30;;;;;;5059554;28;20216;-82
2021/04/13 02:33:42;;;;;;;4.20;3.07;;;5.80;58.70;;;;;;5079282;28;20242;-82
2021/04/13 02:36:15;;;;;;;3.33;3.03;;;5.80;60.00;;;;;;5065754;28;20470;-80
2021/04/13 02:38:48;;;;;;;3.20;2.90;;;5.90;59.70;;;;;;5060897;28;20964;-80
2021/04/13 02:41:21;;;;;;;2.83;2.63;;;5.80;59.10;;;;;;5050042;28;20210;-82
2021/04/13 02:43:53;;;;;;;2.80;2.55;;;5.80;60.20;;;;;;5050427;28;20515;-81
2021/04/13 02:46:22;;;;;;;4.83;3.63;;;5.80;59.20;;;;;;5059064;28;20240;-80
2021/04/13 02:49:01;;;;;;;4.23;3.17;;;6.00;58.90;;;;;;5052731;28;20493;-81
2021/04/13 02:51:30;;;;;;;4.60;3.17;;;5.80;57.80;;;;;;5046123;28;20478;-80
2021/04/13 02:53:59;;;;;;;4.80;3.72;;;5.60;57.80;;;;;;5063555;28;20520;-79
2021/04/13 02:56:32;;;;;;;3.37;3.07;;;5.60;58.20;;;;;;5061832;28;20688;-81
2021/04/13 02:59:16;;;;;;;4.05;2.95;;;5.60;59.70;;;;;;5058892;28;20469;-81
2021/04/13 03:01:52;;;;;;;3.38;3.08;;;5.60;61.70;;;;;;5051968;28;20220;-80
2021/04/13 03:04:21;;;;;;;3.22;2.90;;;5.60;60.10;;;;;;5056039;28;21012;-81
2021/04/13 03:06:51;;;;;;;3.10;2.80;;;5.50;58.30;;;;;;5053284;28;20227;-80
2021/04/13 03:09:21;;;;;;;4.43;2.50;;;5.60;58.00;;;;;;5051350;28;20995;-81
2021/04/13 03:11:50;;;;;;;3.50;2.80;;;5.60;58.00;;;;;;5065158;28;20201;-79
2021/04/13 03:14:20;;;;;;;3.85;3.45;;;5.60;57.80;;;;;;5058407;28;20503;-81
2021/04/13 03:16:50;;;;;;;3.30;2.97;;;5.60;58.00;;;;;;5059145;28;20974;-80
2021/04/13 03:19:21;;;;;;;4.65;3.50;;;5.60;59.10;;;;;;5057501;28;20203;-80
2021/04/13 03:21:51;;;;;;;3.78;3.10;;;5.60;62.90;;;;;;5057071;28;20217;-81
2021/04/13 03:24:22;;;;;;;4.45;3.50;;;5.60;64.00;;;;;;5056014;28;20224;-81
2021/04/13 03:26:52;;;;;;;3.05;2.83;;;5.60;65.80;;;;;;5056556;28;20213;-78
2021/04/13 03:29:23;;;;;;;3.17;2.92;;;5.70;67.90;;;;;;5054510;28;20237;-79
2021/04/13 03:31:53;;;;;;;3.08;2.85;;;5.70;71.70;;;;;;5053886;28;20225;-81
2021/04/13 03:34:23;;;;;;;3.28;2.97;;;5.70;73.30;;;;;;5051031;28;20227;-80
2021/04/13 03:36:53;;;;;;;3.00;2.80;;;5.60;74.80;;;;;;5065607;28;20274;-81
2021/04/13 03:39:26;;;;;;;3.63;2.88;;;5.40;93.80;;;;;;5057003;28;20631;-80
2021/04/13 03:41:55;;;;;;;3.72;3.42;;;5.30;95.00;;;;;;5063889;28;20214;-80
2021/04/13 03:44:23;;;;;;;4.13;3.63;;;5.20;99.90;;;;;;5064176;28;20237;-81
2021/04/13 03:46:52;;;;;;;3.93;2.90;;;5.40;99.90;;;;;;5046617;28;20210;-81
2021/04/13 03:49:25;;;;;;;4.32;3.25;;;5.50;95.00;;;;;;5056638;28;20484;-81
2021/04/13 03:51:56;;;;;;;4.00;3.60;;;5.60;94.50;;;;;;5053642;28;20210;-80
2021/04/13 03:54:28;;;;;;;3.40;3.10;;;5.70;94.50;;;;;;5056234;28;20536;-78
2021/04/13 03:56:57;;;;;;;4.05;3.05;;;5.70;91.60;;;;;;5060980;28;20236;-80
2021/04/13 03:59:26;;;;;;;3.95;3.65;;;5.70;90.80;;;;;;5053514;28;20244;-81
2021/04/13 04:01:53;;;;;;;4.07;3.73;;;5.70;91.40;;;;;;5058840;28;20210;-83
2021/04/13 04:04:28;;;;;;;4.10;3.80;;;5.70;90.70;;;;;;5059957;28;20483;-81
2021/04/13 04:06:58;;;;;;;5.38;3.90;;;5.70;88.80;;;;;;5055772;28;20212;-79
2021/04/13 04:09:36;;;;;;;4.63;3.03;;;5.70;91.10;;;;;;5066105;28;20229;-82
2021/04/13 04:12:15;;;;;;;3.30;3.00;;;5.50;92.40;;;;;;5051243;28;20208;-81
2021/04/13 04:14:56;;;;;;;4.18;3.65;;;5.50;91.40;;;;;;5052801;28;20473;-83
2021/04/13 04:17:23;;;;;;;4.30;3.42;;;5.40;92.40;;;;;;5049986;28;20221;-82
2021/04/13 04:19:57;;;;;;;5.20;3.85;;;5.50;92.20;;;;;;5048657;28;20208;-82
2021/04/13 04:22:25;;;;;;;6.93;4.53;;;5.50;87.80;;;;;;5050480;28;20236;-81
2021/04/13 04:24:54;;;;;;;3.80;3.50;;;5.50;85.50;;;;;;5057122;28;20474;-79
2021/04/13 04:27:32;;;;;;;4.18;3.88;;;5.80;82.90;;;;;;5050161;28;20217;-82
2021/04/13 04:30:21;;;;;;;5.55;3.72;;;5.60;80.50;;;;;;5051745;28;20208;-82
2021/04/13 04:32:48;;;;;;;4.50;4.10;;;5.40;81.50;;;;;;5045381;28;20695;-81
2021/04/13 04:35:36;;;;;;;4.80;4.27;;;5.30;82.80;;;;;;5048159;28;20485;-80
2021/04/13 04:38:10;;;;;;;3.95;3.55;;;5.30;82.60;;;;;;5062271;28;20474;-80
2021/04/13 04:40:53;;;;;;;4.05;3.65;;;5.40;85.20;;;;;;5054156;28;20290;-80
2021/04/13 04:43:39;;;;;;;4.05;3.75;;;5.40;83.70;;;;;;5050040;28;20252;-84
2021/04/13 04:46:07;;;;;;;4.90;4.13;;;5.50;82.20;;;;;;5057922;28;20209;-84
2021/04/13 04:48:36;;;;;;;3.75;3.40;;;5.50;81.50;;;;;;5062859;28;20225;-82
2021/04/13 04:51:07;;;;;;;4.03;3.63;;;5.50;79.60;;;;;;5055287;28;20210;-83
2021/04/13 04:53:36;;;;;;;4.68;3.50;;;5.50;79.70;;;;;;5044576;28;20229;-79
2021/04/13 04:56:06;;;;;;;6.45;3.75;;;5.50;80.60;;;;;;5061236;28;20285;-81
2021/04/13 04:58:33;;;;;;;4.80;4.40;;;5.50;77.30;;;;;;5058660;28;20462;-81
2021/04/13 05:01:01;;;;;;;5.13;3.72;;;5.40;79.20;;;;;;5055510;28;20703;-83
2021/04/13 05:03:29;;;;;;;4.40;3.80;;;5.50;82.60;;;;;;5053956;28;20240;-83
2021/04/13 05:05:57;;;;;;;5.78;3.90;;;5.40;84.10;;;;;;5050659;28;20218;-81
2021/04/13 05:08:26;;;;;;;5.03;3.78;;;5.40;84.70;;;;;;5066409;28;20233;-82
2021/04/13 05:10:53;;;;;;;7.25;4.28;;;5.40;85.10;;;;;;5054519;28;20904;-83
2021/04/13 05:13:21;;;;;;;4.25;3.25;;;5.50;87.10;;;;;;5046874;28;20227;-82
2021/04/13 05:15:49;;;;;;;5.57;3.50;;;5.70;89.00;;;;;;5036567;28;20222;-80
2021/04/13 05:18:16;;;;;;;4.40;3.92;;;5.40;90.40;;;;;;5042554;28;20674;-80
2021/04/13 05:20:44;;;;;;;4.55;4.15;;;5.40;92.00;;;;;;5047772;28;20740;-80
2021/04/13 05:23:13;;;;;;;4.00;3.42;;;5.40;94.90;;;;;;5042927;28;20460;-80
2021/04/13 05:25:41;;;;;;;4.10;3.70;;;5.40;94.40;;;;;;5043241;28;20993;-83
2021/04/13 05:28:09;;;;;;;4.30;3.93;;;5.80;94.60;;;;;;5040748;28;20230;-79
2021/04/13 05:30:37;;;;;;;7.60;3.93;;;5.60;94.90;;;;;;5045120;28;21031;-80
2021/04/13 05:33:05;;;;;;;6.80;4.20;;;5.70;93.80;;;;;;5041813;28;20492;-80
2021/04/13 05:35:33;;;;;;;4.80;4.25;;;5.60;94.70;;;;;;5047841;28;20910;-78
2021/04/13 05:38:05;;;;;;;5.80;4.80;;;5.60;95.00;;;;;;5047180;28;20919;-81
2021/04/13 05:40:34;;;;;;;4.13;3.72;;;5.60;94.80;;;;;;5038647;28;20642;-79
2021/04/13 05:43:04;;;;;;;6.65;4.63;;;5.70;99.90;;;;;;5048004;28;20354;-81
2021/04/13 05:45:33;;;;;;;8.15;4.70;;;5.70;94.70;;;;;;5037353;28;20215;-78
2021/04/13 05:48:01;;;;;;;6.07;5.10;;;5.70;94.80;;;;;;5035440;28;20298;-78
2021/04/13 05:50:31;;;;;;;5.75;5.20;;;5.70;94.50;;;;;;5033487;28;20270;-79
2021/04/13 05:52:58;;;;;;;7.45;5.63;;;5.70;94.70;;;;;;5040870;28;20315;-78
2021/04/13 05:55:26;;;;;;;6.82;5.50;;;5.80;92.80;;;;;;5033561;28;20213;-79
2021/04/13 05:57:55;;;;;;;6.00;5.27;;;5.70;94.50;;;;;;5032074;28;20757;-79
2021/04/13 06:00:25;;;;;;;6.28;5.75;;;5.70;93.80;;;;;;5032176;28;20512;-78
2021/04/13 06:02:54;;;;;;;8.23;5.60;;;5.70;94.10;;;;;;5030220;28;20234;-79
2021/04/13 06:05:25;;;;;;;7.10;6.13;;;5.70;93.30;;;;;;5031409;28;20462;-77
2021/04/13 06:07:54;;;;;;;5.77;5.20;;;5.80;93.50;;;;;;5030561;28;20316;-79
2021/04/13 06:10:22;;;;;;;8.20;4.80;;;5.80;91.80;;;;;;5024868;28;20545;-78
2021/04/13 06:12:51;;;;;;;5.85;5.13;;;5.80;94.20;;;;;;5031408;28;20566;-79
2021/04/13 06:15:20;;;;;;;5.73;5.23;;;5.90;92.70;;;;;;5034584;28;20569;-79
2021/04/13 06:17:49;;;;;;;6.00;5.40;;;6.00;91.00;;;;;;5058060;28;20473;-77
2021/04/13 06:20:18;;;;;;;7.38;5.10;;;6.20;89.70;;;;;;5034224;28;21052;-79
2021/04/13 06:22:46;;;;;;;5.87;5.27;;;6.30;89.50;;;;;;5036905;28;20227;-79
2021/04/13 06:25:16;;;;;;;6.27;5.63;;;6.50;87.00;;;;;;5032765;28;20471;-78
2021/04/13 06:27:43;;;;;;;8.50;4.80;;;6.60;82.10;;;;;;5035621;28;22842;-80
2021/04/13 06:30:12;;;;;;;6.63;5.80;;;6.80;81.30;;;;;;5040383;28;20469;-79
2021/04/13 06:32:39;;;;;;;5.97;5.20;;;6.90;81.10;;;;;;5029678;28;20552;-79
2021/04/13 06:35:09;;;;;;;5.80;4.97;;;7.00;77.70;;;;;;5041557;28;20997;-80
2021/04/13 06:37:39;;;;;;;7.30;6.60;;;7.20;77.30;;;;;;5040063;28;20475;-79
2021/04/13 06:40:09;;;;;;;7.00;5.97;;;7.30;76.00;;;;;;5053679;28;21057;-80
2021/04/13 06:42:48;;;;;;;6.07;4.43;;;7.40;71.80;;;;;;5066720;28;21102;-80
2021/04/13 06:45:32;;;;;;;8.83;6.50;;;7.50;70.30;;;;;;5040599;28;20495;-79
2021/04/13 06:48:10;;;;;;;7.93;6.83;;;7.60;59.80;;;;;;5036684;28;20477;-79
2021/04/13 06:50:50;;;;;;;6.50;5.90;;;7.70;59.60;;;;;;5037399;28;20481;-81
2021/04/13 06:53:30;;;;;;;8.83;6.57;;;7.80;62.30;;;;;;5037355;28;20495;-81
2021/04/13 06:56:13;;;;;;;7.43;6.57;;;7.90;61.80;;;;;;5043088;28;20508;-80
2021/04/13 06:58:56;;;;;;;10.00;6.10;;;8.00;58.00;;;;;;5041728;28;20975;-79
2021/04/13 07:01:28;;;;;;;8.50;5.90;;;8.20;57.30;;;;;;5051747;28;20649;-80
2021/04/13 07:04:00;;;;;;;9.50;6.40;;;8.20;56.10;;;;;;5054272;28;20495;-79
2021/04/13 07:06:38;;;;;;;7.63;6.83;;;8.30;58.40;;;;;;5064412;28;20470;-81
2021/04/13 07:09:16;;;;;;;6.00;5.43;;;8.60;55.10;;;;;;5053568;28;20571;-78
2021/04/13 07:11:51;;;;;;;5.70;5.07;;;8.40;58.20;;;;;;5063332;28;20466;-79
2021/04/13 07:14:23;;;;;;;6.20;5.70;;;8.60;59.90;;;;;;5058335;28;20483;-81
2021/04/13 07:16:56;;;;;;;6.27;5.70;;;8.70;56.60;;;;;;5060261;28;20987;-81
2021/04/13 07:19:30;;;;;;;7.50;6.67;;;8.80;54.70;;;;;;5046234;28;20479;-80
2021/04/13 07:22:03;;;;;;;7.37;6.70;;;8.80;51.90;;;;;;5049814;28;20487;-80
2021/04/13 07:24:39;;;;;;;5.90;5.40;;;8.80;52.40;;;;;;5045259;28;20976;-83
2021/04/13 07:27:11;;;;;;;6.53;5.87;;;8.90;59.10;;;;;;5048243;28;20460;-81
2021/04/13 07:29:44;;;;;;;7.00;6.30;;;8.90;48.20;;;;;;5055456;28;20483;-80
2021/04/13 07:32:14;;;;;;;6.70;6.10;;;8.90;45.20;;;;;;5056653;28;20469;-81
2021/04/13 07:34:43;;;;;;;6.90;6.13;;;8.80;44.30;;;;;;5056300;28;20480;-81
2021/04/13 07:37:17;;;;;;;7.37;6.67;;;8.90;47.10;;;;;;5053089;28;20468;-82
2021/04/13 07:39:49;;;;;;;8.03;7.30;;;8.90;50.50;;;;;;5063168;28;20467;-78
2021/04/13 07:42:21;;;;;;;7.90;6.13;;;9.10;48.40;;;;;;5052942;28;20984;-79
2021/04/13 07:45:13;;;;;;;9.00;6.80;;;9.20;48.90;;;;;;5058825;28;20456;-80
2021/04/13 07:48:10;;;;;;;6.83;6.23;;;9.40;45.60;;;;;;5051276;28;20462;-79
2021/04/13 07:50:48;;;;;;;7.63;6.93;;;9.50;46.70;;;;;;5047353;28;20461;-78
2021/04/13 07:53:23;;;;;;;8.07;6.90;;;9.50;43.40;;;;;;5045219;28;20493;-80
2021/04/13 07:55:56;;;;;;;12.40;7.40;;;9.40;40.20;;;;;;5058249;28;20461;-80
2021/04/13 07:58:37;;;;;;;11.00;7.73;;;9.30;40.40;;;;;;5057076;28;20462;-81
2021/04/13 08:01:08;;;;;;;7.63;6.47;;;9.40;39.30;;;;;;5056575;28;20461;-80
2021/04/13 08:03:37;;;;;;;7.60;6.30;;;9.40;41.40;;;;;;5042155;28;20694;-80
2021/04/13 08:06:26;;;;;;;8.23;7.43;;;9.40;44.80;;;;;;5051189;28;20527;-81
2021/04/13 08:09:19;;;;;;;8.83;8.03;;;9.50;44.00;;;;;;5054654;28;20576;-79
2021/04/13 08:12:08;;;;;;;8.80;7.83;;;9.60;46.60;;;;;;5056819;28;20485;-80
2021/04/13 08:14:37;;;;;;;7.90;7.10;;;9.60;47.90;;;;;;5049373;28;20472;-79
2021/04/13 08:17:08;;;;;;;7.00;6.30;;;9.60;46.90;;;;;;5044479;28;20474;-78
2021/04/13 08:19:35;;;;;;;7.30;6.60;;;9.50;41.80;;;;;;5063162;28;21122;-80
2021/04/13 08:22:07;;;;;;;7.60;6.90;;;9.40;39.80;;;;;;5051171;28;20466;-81
2021/04/13 08:24:39;;;;;;;8.10;7.40;;;9.40;40.40;;;;;;5059956;28;20525;-79
2021/04/13 08:27:30;;;;;;;7.00;6.30;;;9.30;37.80;;;;;;5057580;28;20466;-79
2021/04/13 08:30:04;;;;;;;7.88;7.20;;;9.30;38.60;;;;;;5048245;28;20889;-80
2021/04/13 08:32:51;;;;;;;7.30;6.67;;;9.30;39.00;;;;;;5052984;28;20594;-79
2021/04/13 08:35:30;;;;;;;8.10;6.80;;;9.40;38.30;;;;;;5054473;28;20480;-81
2021/04/13 08:38:22;;;;;;;5.37;4.97;;;9.40;37.90;;;;;;5047798;28;21000;-80
2021/04/13 08:41:24;;;;;;;8.10;7.30;;;9.40;34.80;;;;;;5044173;28;21013;-84
2021/04/13 08:43:58;;;;;;;5.90;5.50;;;9.40;37.90;;;;;;5046170;28;20224;-81
2021/04/13 08:46:43;;;;;;;7.03;5.27;;;9.30;35.70;;;;;;5047970;28;20466;-80
2021/04/13 08:49:17;;;;;;;5.90;5.33;;;9.30;36.40;;;;;;5049010;28;20485;-81
2021/04/13 08:51:46;;;;;;;4.53;4.13;;;9.30;49.80;;;;;;5046831;28;20471;-81
2021/04/13 08:54:29;;;;;;;8.37;5.93;;;9.30;32.30;;;;;;5047844;28;20496;-79
2021/04/13 08:57:02;;;;;;;6.10;5.00;;;9.30;32.20;;;;;;5045434;28;20467;-77
2021/04/13 08:59:39;;;;;;;4.57;4.18;;;9.30;28.00;;;;;;5060276;28;20474;-80
2021/04/13 09:02:13;;;;;;;6.40;4.10;;;9.40;29.40;;;;;;5040107;28;20212;-79
2021/04/13 09:04:41;;;;;;;4.73;4.30;;;9.50;29.30;;;;;;5050114;28;20647;-80
2021/04/13 09:07:11;;;;;;;4.57;4.17;;;9.50;29.30;;;;;;5044645;28;20534;-80
2021/04/13 09:09:43;;;;;;;3.90;3.60;;;9.60;29.20;;;;;;5052295;28;20479;-81
2021/04/13 09:12:32;;;;;;;4.67;4.27;;;9.60;23.80;;;;;;5057747;28;20531;-81
2021/04/13 09:15:20;;;;;;;4.20;3.80;;;9.60;24.80;;;;;;5062541;28;20467;-77
2021/04/13 09:17:57;;;;;;;5.90;4.40;;;9.80;28.00;;;;;;5052699;28;21001;-79
2021/04/13 09:20:33;;;;;;;5.37;4.87;;;9.90;28.90;;;;;;5044908;28;20734;-77
2021/04/13 09:23:10;;;;;;;5.50;4.70;;;9.90;23.30;;;;;;5051244;28;20488;-78
2021/04/13 09:25:44;;;;;;;4.93;4.53;;;9.90;22.50;;;;;;5051063;28;20634;-76
2021/04/13 09:28:15;;;;;;;6.60;6.00;;;9.80;24.20;;;;;;5051089;28;20466;-79
2021/04/13 09:30:44;;;;;;;7.10;5.20;;;9.90;24.50;;;;;;5045521;28;21487;-77
2021/04/13 09:33:31;;;;;;;5.83;5.40;;;9.90;20.80;;;;;;5055616;28;20482;-76
2021/04/13 09:36:13;;;;;;;4.80;4.40;;;9.70;16.00;;;;;;5052357;28;20877;-76
2021/04/13 09:39:15;;;;;;;6.70;5.67;;;9.70;15.30;;;;;;5041435;28;20466;-77
2021/04/13 09:41:52;;;;;;;5.60;5.00;;;9.80;16.40;;;;;;5022631;28;21259;-78
2021/04/13 09:44:45;;;;;;;12.40;7.53;;;9.80;15.40;;;;;;5059416;28;20476;-77
2021/04/13 09:47:28;;;;;;;7.10;5.03;;;10.00;15.80;;;;;;5049024;28;20246;-76
2021/04/13 09:50:04;;;;;;;6.90;6.30;;;10.00;16.60;;;;;;5046153;28;20488;-77
2021/04/13 09:53:05;;;;;;;12.53;10.80;;;10.00;11.50;;;;;;5047474;28;20478;-77
2021/04/13 09:55:46;;;;;;;6.63;6.00;;;10.00;14.70;;;;;;5055622;28;20465;-74
2021/04/13 09:58:44;;;;;;;6.93;6.33;;;10.10;8.60;;;;;;5051626;28;20461;-75
2021/04/13 10:01:18;;;;;;;4.77;4.37;;;10.00;6.80;;;;;;5050684;28;20463;-75
2021/04/13 10:04:07;;;;;;;4.97;4.57;;;9.90;7.00;;;;;;5052053;28;20510;-76
2021/04/13 10:06:37;;;;;;;5.90;5.30;;;9.90;15.30;;;;;;5055618;28;20497;-76
2021/04/13 10:09:16;;;;;;;5.60;5.00;;;10.00;8.70;;;;;;5058296;28;20544;-76
2021/04/13 10:12:09;;;;;;;4.87;4.40;;;10.20;9.30;;;;;;5052755;28;21019;-76
2021/04/13 10:15:03;;;;;;;5.27;4.80;;;10.30;9.80;;;;;;5047947;28;20455;-75
2021/04/13 10:17:48;;;;;;;4.17;3.67;;;10.50;8.60;;;;;;5058934;28;21108;-77
2021/04/13 10:20:30;;;;;;;5.20;3.77;;;10.60;4.20;;;;;;5057463;28;20460;-76
2021/04/13 10:23:27;;;;;;;3.90;3.60;;;10.70;1.00;;;;;;5054245;28;20538;-77
2021/04/13 10:26:34;;;;;;;3.83;3.53;;;10.70;1.00;;;;;;5052904;28;20544;-77
2021/04/13 10:29:24;;;;;;;4.83;4.40;;;10.80;1.00;;;;;;5046444;28;20505;-76
2021/04/13 10:32:28;;;;;;;4.67;4.27;;;10.80;1.00;;;;;;5043772;28;20462;-78
2021/04/13 10:35:29;;;;;;;5.00;4.60;;;10.90;1.00;;;;;;5043381;28;20462;-77
2021/04/13 10:38:47;;;;;;;3.53;3.33;;;11.00;1.00;;;;;;5044557;28;20468;-78
2021/04/13 10:41:46;;;;;;;6.93;3.97;;;11.00;1.00;;;;;;5052096;28;20974;-81
2021/04/13 10:44:53;;;;;;;3.77;3.40;;;11.00;1.00;;;;;;5067806;28;20479;-80
2021/04/13 10:47:54;;;;;;;4.60;4.20;;;10.90;1.00;;;;;;5061676;28;20477;-81
2021/04/13 10:50:51;;;;;;;4.43;4.03;;;10.90;1.00;;;;;;5047613;28;20498;-81
2021/04/13 10:53:51;;;;;;;4.43;3.67;;;10.70;1.00;;;;;;5056007;28;20473;-80
2021/04/13 10:57:03;;;;;;;4.10;3.70;;;10.70;1.00;;;;;;5008535;28;21060;-79
2021/04/13 11:00:06;;;;;;;6.13;3.60;;;10.80;1.00;;;;;;5026550;28;20534;-84
2021/04/13 11:03:02;;;;;;;3.67;3.20;;;10.80;1.00;;;;;;5047811;28;20484;-81
2021/04/13 11:05:41;;;;;;;3.47;3.03;;;10.90;1.00;;;;;;5058046;28;20450;-81
2021/04/13 11:08:40;;;;;;;3.03;2.47;;;10.90;1.00;;;;;;5051519;28;20463;-82
2021/04/13 11:11:53;;;;;;;2.80;2.50;;;10.90;1.00;;;;;;5054055;28;20456;-82
2021/04/13 11:14:53;;;;;;;4.03;2.87;;;10.90;1.00;;;;;;5028247;28;20514;-81
2021/04/13 11:18:02;;;;;;;3.70;3.27;;;11.00;1.00;;;;;;5051899;28;20841;-81
2021/04/13 11:21:07;;;;;;;2.80;2.60;;;11.10;1.00;;;;;;5066110;28;20568;-80
2021/04/13 11:24:37;;;;;;;3.50;3.20;;;11.10;1.00;;;;;;5053549;28;20481;-78
2021/04/13 11:27:58;;;;;;;5.30;3.40;;;11.00;1.00;;;;;;5044090;28;21268;-79
2021/04/13 11:31:14;;;;;;;3.40;2.60;;;11.00;1.00;;;;;;5052971;28;20483;-78
2021/04/13 11:34:08;;;;;;;3.83;2.23;;;11.00;1.00;;;;;;5053614;28;20781;-78
2021/04/13 11:36:51;;;;;;;4.77;3.10;;;11.00;1.00;;;;;;5043302;28;21063;-75
2021/04/13 11:39:25;;;;;;;2.93;2.63;;;10.90;1.00;;;;;;5048958;28;20441;-76
2021/04/13 11:42:16;;;;;;;3.40;2.23;;;10.90;1.00;;;;;;5047834;28;20458;-76
2021/04/13 11:44:51;;;;;;;3.40;3.03;;;11.10;1.00;;;;;;5049743;28;20476;-76
2021/04/13 11:47:27;;;;;;;4.63;2.60;;;11.20;1.00;;;;;;5057929;28;20465;-76
2021/04/13 11:50:07;;;;;;;3.33;3.13;;;11.40;1.00;;;;;;5052273;28;20850;-76
2021/04/13 11:52:43;;;;;;;3.10;2.80;;;11.50;1.00;;;;;;5050294;28;20873;-75
2021/04/13 11:55:36;;;;;;;2.67;2.40;;;11.70;1.00;;;;;;5041008;28;21227;-78
2021/04/13 11:58:11;;;;;;;3.50;2.20;;;11.70;1.00;;;;;;5056006;28;20989;-78
2021/04/13 12:00:38;;;;;;;2.90;2.70;;;11.80;1.00;;;;;;5050308;28;21321;-80
2021/04/13 12:03:32;;;;;;;3.50;3.20;;;11.70;1.00;;;;;;5054850;28;20537;-78
2021/04/13 12:06:10;;;;;;;3.40;3.10;;;11.70;1.00;;;;;;5047944;28;20476;-79
2021/04/13 12:08:48;;;;;;;4.40;3.10;;;11.80;1.00;;;;;;5045663;28;20459;-80
2021/04/13 12:11:17;;;;;;;4.17;3.77;;;12.00;1.00;;;;;;5038852;28;20453;-77
2021/04/13 12:13:47;;;;;;;31.43;16.10;;;12.00;1.00;;;;;;5049656;28;20480;-79
2021/04/13 12:16:18;;;;;;;5.70;4.47;;;12.00;1.00;;;;;;5047560;28;20449;-77
2021/04/13 12:19:08;;;;;;;5.40;3.67;;;12.10;1.00;;;;;;5040186;28;20447;-79
2021/04/13 12:22:00;;;;;;;4.30;3.90;;;12.00;1.00;;;;;;5050435;28;20463;-78
2021/04/13 12:24:52;;;;;;;3.57;3.27;;;11.90;1.00;;;;;;5037962;28;20876;-80
2021/04/13 12:27:43;;;;;;;5.03;3.73;;;11.80;1.00;;;;;;5052005;28;20637;-79
2021/04/13 12:30:34;;;;;;;3.43;3.23;;;11.70;1.00;;;;;;5050380;28;20489;-77
2021/04/13 12:33:03;;;;;;;3.20;3.00;;;11.60;1.00;;;;;;5058321;28;20485;-77
2021/04/13 12:35:54;;;;;;;3.10;2.43;;;11.60;1.00;;;;;;5050878;28;20972;-79
2021/04/13 12:38:50;;;;;;;2.53;2.33;;;11.70;1.00;;;;;;5055338;28;20470;-78
2021/04/13 12:41:22;;;;;;;2.50;2.30;;;11.70;1.00;;;;;;5063495;28;21170;-80
2021/04/13 12:43:51;;;;;;;2.30;2.10;;;11.70;1.00;;;;;;5039783;28;20488;-79
2021/04/13 12:46:25;;;;;;;2.67;2.27;;;11.70;1.00;;;;;;5067749;28;20531;-79
2021/04/13 12:48:55;;;;;;;2.73;2.53;;;11.60;1.00;;;;;;5062230;28;20460;-78
2021/04/13 12:51:31;;;;;;;3.30;3.10;;;11.60;1.00;;;;;;5054765;28;20988;-79
2021/04/13 12:54:14;;;;;;;3.33;3.10;;;11.70;1.00;;;;;;5052358;28;20855;-78
2021/04/13 12:56:48;;;;;;;2.70;2.50;;;11.70;1.00;;;;;;5060588;28;20476;-80
2021/04/13 12:59:20;;;;;;;4.00;2.80;;;11.80;1.00;;;;;;5060268;28;20470;-78
2021/04/13 13:01:48;;;;;;;2.57;2.43;;;11.80;1.00;;;;;;5042868;28;20457;-79
2021/04/13 13:04:19;;;;;;;2.43;2.23;;;11.90;1.00;;;;;;5048520;28;20515;-79
2021/04/13 13:06:51;;;;;;;2.60;2.40;;;12.00;1.00;;;;;;5056853;28;20458;-80
2021/04/13 13:09:29;;;;;;;2.70;2.23;;;12.10;1.00;;;;;;5054640;28;20484;-81
2021/04/13 13:12:04;;;;;;;2.90;2.60;;;12.20;1.00;;;;;;5041867;28;20460;-78
2021/04/13 13:14:33;;;;;;;2.93;1.97;;;12.20;1.00;;;;;;5044104;28;20464;-78
2021/04/13 13:17:02;;;;;;;1.97;1.87;;;12.10;1.00;;;;;;5052535;28;20468;-79
2021/04/13 13:19:33;;;;;;;2.37;2.20;;;12.10;1.00;;;;;;5054530;28;20458;-79
2021/04/13 13:22:04;;;;;;;5.77;3.03;;;12.20;1.00;;;;;;5043573;28;20540;-79
2021/04/13 13:24:34;;;;;;;3.10;2.90;;;12.20;1.00;;;;;;5066366;28;20533;-79
2021/04/13 13:27:18;;;;;;;3.00;2.37;;;12.00;1.00;;;;;;5066877;28;20451;-80
2021/04/13 13:29:48;;;;;;;3.80;2.83;;;12.30;1.00;;;;;;5050355;28;20484;-79
2021/04/13 13:32:17;;;;;;;4.40;2.50;;;12.20;1.00;;;;;;5048932;28;20835;-78
2021/04/13 13:34:47;;;;;;;3.60;3.30;;;12.30;1.00;;;;;;5053037;28;20542;-78
2021/04/13 13:37:15;;;;;;;4.10;3.50;;;12.20;1.00;;;;;;5055943;28;20446;-77
2021/04/13 13:39:43;;;;;;;3.80;3.50;;;12.00;1.00;;;;;;5048739;28;20498;-79
2021/04/13 13:42:16;;;;;;;4.90;4.43;;;11.80;1.00;;;;;;5051844;28;20472;-79
2021/04/13 13:44:45;;;;;;;3.40;3.10;;;11.80;1.00;;;;;;5050599;28;20468;-79